sensor_id;sensor_type;location;lat;lon;timestamp;P1;durP1;ratioP1;P2;durP2;ratioP2
32639;SDS011;19049;52.524;11.468;2022-12-08T00:01:15;7.33;;;3.90;;
32639;SDS011;19049;52.524;11.468;2022-12-08T00:03:43;6.23;;;4.10;;
32639;SDS011;19049;52.524;11.468;2022-12-08T00:09:07;5.87;;;4.23;;
32639;SDS011;19049;52.524;11.468;2022-12-08T00:11:46;6.90;;;5.03;;
32639;SDS011;19049;52.524;11.468;2022-12-08T00:14:21;5.83;;;4.53;;
32639;SDS011;19049;52.524;11.468;2022-12-08T00:17:08;7.73;;;4.67;;
32639;SDS011;19049;52.524;11.468;2022-12-08T00:19:37;7.60;;;4.83;;
32639;SDS011;19049;52.524;11.468;2022-12-08T00:22:09;8.13;;;5.67;;
32639;SDS011;19049;52.524;11.468;2022-12-08T00:24:36;6.37;;;4.33;;
32639;SDS011;19049;52.524;11.468;2022-12-08T00:27:03;7.97;;;5.63;;
32639;SDS011;19049;52.524;11.468;2022-12-08T00:29:32;6.67;;;5.00;;
32639;SDS011;19049;52.524;11.468;2022-12-08T00:32:08;9.63;;;5.90;;
32639;SDS011;19049;52.524;11.468;2022-12-08T00:34:33;7.13;;;5.17;;
32639;SDS011;19049;52.524;11.468;2022-12-08T00:36:59;8.40;;;5.23;;
32639;SDS011;19049;52.524;11.468;2022-12-08T00:39:25;6.13;;;4.77;;
32639;SDS011;19049;52.524;11.468;2022-12-08T00:41:51;6.57;;;4.30;;
32639;SDS011;19049;52.524;11.468;2022-12-08T00:44:35;5.20;;;4.00;;
32639;SDS011;19049;52.524;11.468;2022-12-08T00:47:00;7.10;;;4.63;;
32639;SDS011;19049;52.524;11.468;2022-12-08T00:49:26;7.90;;;5.23;;
32639;SDS011;19049;52.524;11.468;2022-12-08T00:51:52;8.53;;;5.23;;
32639;SDS011;19049;52.524;11.468;2022-12-08T00:54:18;7.90;;;5.47;;
32639;SDS011;19049;52.524;11.468;2022-12-08T00:56:44;8.83;;;5.97;;
32639;SDS011;19049;52.524;11.468;2022-12-08T00:59:10;7.70;;;5.40;;
32639;SDS011;19049;52.524;11.468;2022-12-08T01:01:36;6.60;;;4.87;;
32639;SDS011;19049;52.524;11.468;2022-12-08T01:04:03;7.03;;;5.07;;
32639;SDS011;19049;52.524;11.468;2022-12-08T01:06:29;8.33;;;6.27;;
32639;SDS011;19049;52.524;11.468;2022-12-08T01:08:55;8.73;;;6.67;;
32639;SDS011;19049;52.524;11.468;2022-12-08T01:11:21;8.07;;;5.67;;
32639;SDS011;19049;52.524;11.468;2022-12-08T01:13:47;8.90;;;5.77;;
32639;SDS011;19049;52.524;11.468;2022-12-08T01:16:23;7.93;;;5.50;;
32639;SDS011;19049;52.524;11.468;2022-12-08T01:18:50;10.30;;;6.30;;
32639;SDS011;19049;52.524;11.468;2022-12-08T01:21:16;8.00;;;6.43;;
32639;SDS011;19049;52.524;11.468;2022-12-08T01:23:43;9.27;;;6.27;;
32639;SDS011;19049;52.524;11.468;2022-12-08T01:26:10;8.53;;;6.17;;
32639;SDS011;19049;52.524;11.468;2022-12-08T01:28:37;9.70;;;7.07;;
32639;SDS011;19049;52.524;11.468;2022-12-08T01:31:03;11.70;;;7.80;;
32639;SDS011;19049;52.524;11.468;2022-12-08T01:33:31;10.90;;;7.20;;
32639;SDS011;19049;52.524;11.468;2022-12-08T01:36:03;10.73;;;6.83;;
32639;SDS011;19049;52.524;11.468;2022-12-08T01:38:29;9.53;;;6.97;;
32639;SDS011;19049;52.524;11.468;2022-12-08T01:40:56;8.10;;;6.23;;
32639;SDS011;19049;52.524;11.468;2022-12-08T01:43:22;11.40;;;7.20;;
32639;SDS011;19049;52.524;11.468;2022-12-08T01:45:50;9.20;;;7.03;;
32639;SDS011;19049;52.524;11.468;2022-12-08T01:48:19;10.07;;;7.87;;
32639;SDS011;19049;52.524;11.468;2022-12-08T01:50:49;8.83;;;6.73;;
32639;SDS011;19049;52.524;11.468;2022-12-08T01:53:23;8.33;;;6.07;;
32639;SDS011;19049;52.524;11.468;2022-12-08T01:55:57;7.73;;;5.43;;
32639;SDS011;19049;52.524;11.468;2022-12-08T01:58:40;7.57;;;5.37;;
32639;SDS011;19049;52.524;11.468;2022-12-08T02:01:11;7.20;;;5.40;;
32639;SDS011;19049;52.524;11.468;2022-12-08T02:03:39;9.07;;;6.63;;
32639;SDS011;19049;52.524;11.468;2022-12-08T02:06:10;7.70;;;6.37;;
32639;SDS011;19049;52.524;11.468;2022-12-08T02:08:37;9.90;;;6.10;;
32639;SDS011;19049;52.524;11.468;2022-12-08T02:11:09;8.17;;;6.37;;
32639;SDS011;19049;52.524;11.468;2022-12-08T02:13:35;10.10;;;7.30;;
32639;SDS011;19049;52.524;11.468;2022-12-08T02:18:55;10.43;;;7.33;;
32639;SDS011;19049;52.524;11.468;2022-12-08T02:21:55;9.43;;;7.10;;
32639;SDS011;19049;52.524;11.468;2022-12-08T02:27:31;8.17;;;6.03;;
32639;SDS011;19049;52.524;11.468;2022-12-08T02:30:17;8.63;;;6.50;;
32639;SDS011;19049;52.524;11.468;2022-12-08T02:36:06;7.70;;;5.80;;
32639;SDS011;19049;52.524;11.468;2022-12-08T02:38:51;8.87;;;6.20;;
32639;SDS011;19049;52.524;11.468;2022-12-08T02:44:32;6.93;;;5.40;;
32639;SDS011;19049;52.524;11.468;2022-12-08T02:47:19;8.07;;;5.77;;
32639;SDS011;19049;52.524;11.468;2022-12-08T02:49:47;8.77;;;5.97;;
32639;SDS011;19049;52.524;11.468;2022-12-08T02:54:45;8.27;;;6.67;;
32639;SDS011;19049;52.524;11.468;2022-12-08T03:07:48;11.83;;;8.47;;
32639;SDS011;19049;52.524;11.468;2022-12-08T03:10:28;11.47;;;7.73;;
32639;SDS011;19049;52.524;11.468;2022-12-08T03:15:47;12.53;;;8.73;;
32639;SDS011;19049;52.524;11.468;2022-12-08T03:18:15;10.70;;;8.73;;
32639;SDS011;19049;52.524;11.468;2022-12-08T03:20:43;12.97;;;9.47;;
32639;SDS011;19049;52.524;11.468;2022-12-08T03:23:10;14.70;;;9.57;;
32639;SDS011;19049;52.524;11.468;2022-12-08T03:25:40;11.97;;;8.63;;
32639;SDS011;19049;52.524;11.468;2022-12-08T03:28:14;13.13;;;9.23;;
32639;SDS011;19049;52.524;11.468;2022-12-08T03:30:40;10.83;;;8.17;;
32639;SDS011;19049;52.524;11.468;2022-12-08T03:33:14;12.10;;;8.10;;
32639;SDS011;19049;52.524;11.468;2022-12-08T03:35:50;10.77;;;8.40;;
32639;SDS011;19049;52.524;11.468;2022-12-08T03:38:17;10.23;;;8.07;;
32639;SDS011;19049;52.524;11.468;2022-12-08T03:40:43;13.70;;;9.50;;
32639;SDS011;19049;52.524;11.468;2022-12-08T03:43:32;11.87;;;7.90;;
32639;SDS011;19049;52.524;11.468;2022-12-08T03:45:59;11.90;;;8.43;;
32639;SDS011;19049;52.524;11.468;2022-12-08T03:48:25;10.40;;;7.73;;
32639;SDS011;19049;52.524;11.468;2022-12-08T03:50:51;11.50;;;9.10;;
32639;SDS011;19049;52.524;11.468;2022-12-08T03:53:17;12.07;;;9.07;;
32639;SDS011;19049;52.524;11.468;2022-12-08T03:55:43;14.17;;;10.03;;
32639;SDS011;19049;52.524;11.468;2022-12-08T03:58:08;13.57;;;10.30;;
32639;SDS011;19049;52.524;11.468;2022-12-08T04:00:34;13.67;;;9.20;;
32639;SDS011;19049;52.524;11.468;2022-12-08T04:03:00;11.57;;;8.70;;
32639;SDS011;19049;52.524;11.468;2022-12-08T04:05:25;12.80;;;9.60;;
32639;SDS011;19049;52.524;11.468;2022-12-08T04:07:55;13.60;;;8.57;;
32639;SDS011;19049;52.524;11.468;2022-12-08T04:10:21;14.27;;;9.07;;
32639;SDS011;19049;52.524;11.468;2022-12-08T04:12:49;14.27;;;9.43;;
32639;SDS011;19049;52.524;11.468;2022-12-08T04:15:14;14.60;;;9.00;;
32639;SDS011;19049;52.524;11.468;2022-12-08T04:17:43;11.60;;;8.43;;
32639;SDS011;19049;52.524;11.468;2022-12-08T04:20:09;13.23;;;8.27;;
32639;SDS011;19049;52.524;11.468;2022-12-08T04:22:38;12.83;;;8.00;;
32639;SDS011;19049;52.524;11.468;2022-12-08T04:25:06;13.13;;;8.87;;
32639;SDS011;19049;52.524;11.468;2022-12-08T04:27:32;12.20;;;8.77;;
32639;SDS011;19049;52.524;11.468;2022-12-08T04:30:00;11.60;;;8.60;;
32639;SDS011;19049;52.524;11.468;2022-12-08T04:32:25;10.10;;;7.47;;
32639;SDS011;19049;52.524;11.468;2022-12-08T04:34:51;11.67;;;7.97;;
32639;SDS011;19049;52.524;11.468;2022-12-08T04:37:17;9.63;;;7.13;;
32639;SDS011;19049;52.524;11.468;2022-12-08T04:39:45;12.60;;;8.70;;
32639;SDS011;19049;52.524;11.468;2022-12-08T04:42:18;10.83;;;8.03;;
32639;SDS011;19049;52.524;11.468;2022-12-08T04:44:44;11.47;;;7.93;;
32639;SDS011;19049;52.524;11.468;2022-12-08T04:47:10;13.30;;;9.93;;
32639;SDS011;19049;52.524;11.468;2022-12-08T04:49:38;17.30;;;10.63;;
32639;SDS011;19049;52.524;11.468;2022-12-08T04:52:04;12.70;;;9.30;;
32639;SDS011;19049;52.524;11.468;2022-12-08T04:54:37;15.37;;;9.30;;
32639;SDS011;19049;52.524;11.468;2022-12-08T05:00:47;13.80;;;8.47;;
32639;SDS011;19049;52.524;11.468;2022-12-08T05:04:06;15.37;;;10.20;;
32639;SDS011;19049;52.524;11.468;2022-12-08T05:13:47;13.60;;;9.00;;
32639;SDS011;19049;52.524;11.468;2022-12-08T05:16:53;10.60;;;7.87;;
32639;SDS011;19049;52.524;11.468;2022-12-08T05:19:24;12.03;;;8.00;;
32639;SDS011;19049;52.524;11.468;2022-12-08T05:21:49;12.17;;;7.97;;
32639;SDS011;19049;52.524;11.468;2022-12-08T05:24:15;11.63;;;7.77;;
32639;SDS011;19049;52.524;11.468;2022-12-08T05:26:51;11.97;;;8.63;;
32639;SDS011;19049;52.524;11.468;2022-12-08T05:29:16;11.60;;;7.80;;
32639;SDS011;19049;52.524;11.468;2022-12-08T05:31:42;9.23;;;6.77;;
32639;SDS011;19049;52.524;11.468;2022-12-08T05:34:08;12.17;;;7.17;;
32639;SDS011;19049;52.524;11.468;2022-12-08T05:36:33;10.77;;;7.57;;
32639;SDS011;19049;52.524;11.468;2022-12-08T05:38:59;15.33;;;9.23;;
32639;SDS011;19049;52.524;11.468;2022-12-08T05:41:25;9.87;;;7.40;;
32639;SDS011;19049;52.524;11.468;2022-12-08T05:43:50;11.20;;;7.30;;
32639;SDS011;19049;52.524;11.468;2022-12-08T05:46:16;10.97;;;6.60;;
32639;SDS011;19049;52.524;11.468;2022-12-08T05:48:42;9.93;;;7.00;;
32639;SDS011;19049;52.524;11.468;2022-12-08T05:51:21;12.93;;;7.97;;
32639;SDS011;19049;52.524;11.468;2022-12-08T05:53:48;10.37;;;7.10;;
32639;SDS011;19049;52.524;11.468;2022-12-08T05:56:18;10.23;;;7.13;;
32639;SDS011;19049;52.524;11.468;2022-12-08T05:58:47;10.53;;;7.50;;
32639;SDS011;19049;52.524;11.468;2022-12-08T06:01:24;10.37;;;7.33;;
32639;SDS011;19049;52.524;11.468;2022-12-08T06:03:59;9.63;;;6.67;;
32639;SDS011;19049;52.524;11.468;2022-12-08T06:06:27;9.77;;;6.60;;
32639;SDS011;19049;52.524;11.468;2022-12-08T06:08:56;9.90;;;6.10;;
32639;SDS011;19049;52.524;11.468;2022-12-08T06:11:25;8.00;;;6.13;;
32639;SDS011;19049;52.524;11.468;2022-12-08T06:13:58;9.17;;;5.80;;
32639;SDS011;19049;52.524;11.468;2022-12-08T06:16:27;9.53;;;6.03;;
32639;SDS011;19049;52.524;11.468;2022-12-08T06:18:55;12.07;;;7.20;;
32639;SDS011;19049;52.524;11.468;2022-12-08T06:21:23;9.50;;;6.03;;
32639;SDS011;19049;52.524;11.468;2022-12-08T06:23:54;8.33;;;5.90;;
32639;SDS011;19049;52.524;11.468;2022-12-08T06:26:20;9.50;;;6.03;;
32639;SDS011;19049;52.524;11.468;2022-12-08T06:28:57;9.10;;;5.37;;
32639;SDS011;19049;52.524;11.468;2022-12-08T06:31:25;11.70;;;6.87;;
32639;SDS011;19049;52.524;11.468;2022-12-08T06:34:18;10.17;;;6.33;;
32639;SDS011;19049;52.524;11.468;2022-12-08T06:36:59;11.17;;;6.70;;
32639;SDS011;19049;52.524;11.468;2022-12-08T06:39:27;9.40;;;6.83;;
32639;SDS011;19049;52.524;11.468;2022-12-08T06:42:06;9.90;;;6.67;;
32639;SDS011;19049;52.524;11.468;2022-12-08T06:44:50;11.13;;;6.07;;
32639;SDS011;19049;52.524;11.468;2022-12-08T06:47:16;10.50;;;6.87;;
32639;SDS011;19049;52.524;11.468;2022-12-08T06:49:42;10.67;;;6.63;;
32639;SDS011;19049;52.524;11.468;2022-12-08T06:52:07;11.20;;;6.93;;
32639;SDS011;19049;52.524;11.468;2022-12-08T06:54:33;12.77;;;8.37;;
32639;SDS011;19049;52.524;11.468;2022-12-08T06:56:59;12.10;;;7.40;;
32639;SDS011;19049;52.524;11.468;2022-12-08T06:59:24;9.63;;;6.73;;
32639;SDS011;19049;52.524;11.468;2022-12-08T07:01:50;11.90;;;7.23;;
32639;SDS011;19049;52.524;11.468;2022-12-08T07:04:17;13.00;;;7.00;;
32639;SDS011;19049;52.524;11.468;2022-12-08T07:06:45;10.10;;;7.07;;
32639;SDS011;19049;52.524;11.468;2022-12-08T07:09:10;11.03;;;6.67;;
32639;SDS011;19049;52.524;11.468;2022-12-08T07:11:46;12.07;;;7.30;;
32639;SDS011;19049;52.524;11.468;2022-12-08T07:14:16;12.63;;;6.33;;
32639;SDS011;19049;52.524;11.468;2022-12-08T07:17:09;9.23;;;6.80;;
32639;SDS011;19049;52.524;11.468;2022-12-08T07:19:40;11.60;;;8.40;;
32639;SDS011;19049;52.524;11.468;2022-12-08T07:25:47;14.30;;;8.83;;
32639;SDS011;19049;52.524;11.468;2022-12-08T07:28:14;9.93;;;7.07;;
32639;SDS011;19049;52.524;11.468;2022-12-08T07:30:40;12.47;;;7.50;;
32639;SDS011;19049;52.524;11.468;2022-12-08T07:33:06;12.60;;;6.93;;
32639;SDS011;19049;52.524;11.468;2022-12-08T07:35:31;15.43;;;7.67;;
32639;SDS011;19049;52.524;11.468;2022-12-08T07:38:00;12.23;;;6.40;;
32639;SDS011;19049;52.524;11.468;2022-12-08T07:40:28;12.03;;;6.50;;
32639;SDS011;19049;52.524;11.468;2022-12-08T07:42:53;14.67;;;8.13;;
32639;SDS011;19049;52.524;11.468;2022-12-08T07:45:29;13.60;;;7.70;;
32639;SDS011;19049;52.524;11.468;2022-12-08T07:47:55;10.73;;;6.00;;
32639;SDS011;19049;52.524;11.468;2022-12-08T07:50:21;11.13;;;6.83;;
32639;SDS011;19049;52.524;11.468;2022-12-08T07:56:10;10.43;;;6.23;;
32639;SDS011;19049;52.524;11.468;2022-12-08T07:58:54;11.50;;;6.83;;
32639;SDS011;19049;52.524;11.468;2022-12-08T08:04:04;10.67;;;6.93;;
32639;SDS011;19049;52.524;11.468;2022-12-08T08:06:54;13.57;;;8.20;;
32639;SDS011;19049;52.524;11.468;2022-12-08T08:09:22;13.50;;;7.03;;
32639;SDS011;19049;52.524;11.468;2022-12-08T08:11:55;11.90;;;6.57;;
32639;SDS011;19049;52.524;11.468;2022-12-08T08:14:39;12.43;;;7.67;;
32639;SDS011;19049;52.524;11.468;2022-12-08T08:17:05;12.50;;;8.10;;
32639;SDS011;19049;52.524;11.468;2022-12-08T08:19:31;17.03;;;10.07;;
32639;SDS011;19049;52.524;11.468;2022-12-08T08:21:57;14.60;;;9.03;;
32639;SDS011;19049;52.524;11.468;2022-12-08T08:24:22;13.13;;;7.87;;
32639;SDS011;19049;52.524;11.468;2022-12-08T08:26:48;12.67;;;8.00;;
32639;SDS011;19049;52.524;11.468;2022-12-08T08:29:17;11.43;;;7.70;;
32639;SDS011;19049;52.524;11.468;2022-12-08T08:31:43;13.57;;;7.23;;
32639;SDS011;19049;52.524;11.468;2022-12-08T08:34:10;11.50;;;8.03;;
32639;SDS011;19049;52.524;11.468;2022-12-08T08:36:36;17.33;;;8.97;;
32639;SDS011;19049;52.524;11.468;2022-12-08T08:39:03;17.00;;;9.90;;
32639;SDS011;19049;52.524;11.468;2022-12-08T08:41:29;15.90;;;9.97;;
32639;SDS011;19049;52.524;11.468;2022-12-08T08:43:55;17.20;;;9.90;;
32639;SDS011;19049;52.524;11.468;2022-12-08T08:46:20;14.47;;;8.90;;
32639;SDS011;19049;52.524;11.468;2022-12-08T08:48:51;14.07;;;9.40;;
32639;SDS011;19049;52.524;11.468;2022-12-08T08:51:20;15.80;;;10.67;;
32639;SDS011;19049;52.524;11.468;2022-12-08T08:53:45;17.93;;;11.10;;
32639;SDS011;19049;52.524;11.468;2022-12-08T08:56:14;15.43;;;9.73;;
32639;SDS011;19049;52.524;11.468;2022-12-08T08:58:51;17.50;;;10.10;;
32639;SDS011;19049;52.524;11.468;2022-12-08T09:01:18;16.83;;;9.10;;
32639;SDS011;19049;52.524;11.468;2022-12-08T09:03:49;14.67;;;10.27;;
32639;SDS011;19049;52.524;11.468;2022-12-08T09:06:26;13.60;;;9.37;;
32639;SDS011;19049;52.524;11.468;2022-12-08T09:08:52;18.93;;;11.37;;
32639;SDS011;19049;52.524;11.468;2022-12-08T09:11:24;16.43;;;10.80;;
32639;SDS011;19049;52.524;11.468;2022-12-08T09:14:10;13.57;;;9.50;;
32639;SDS011;19049;52.524;11.468;2022-12-08T09:16:58;16.87;;;10.57;;
32639;SDS011;19049;52.524;11.468;2022-12-08T09:19:40;14.77;;;9.23;;
32639;SDS011;19049;52.524;11.468;2022-12-08T09:22:09;14.33;;;8.93;;
32639;SDS011;19049;52.524;11.468;2022-12-08T09:24:51;14.03;;;9.10;;
32639;SDS011;19049;52.524;11.468;2022-12-08T09:27:17;14.20;;;9.87;;
32639;SDS011;19049;52.524;11.468;2022-12-08T10:25:02;8.43;;;6.10;;
32639;SDS011;19049;52.524;11.468;2022-12-08T10:28:18;8.87;;;6.20;;
32639;SDS011;19049;52.524;11.468;2022-12-08T10:31:25;8.63;;;5.60;;
32639;SDS011;19049;52.524;11.468;2022-12-08T10:44:01;8.37;;;6.07;;
32639;SDS011;19049;52.524;11.468;2022-12-08T10:46:38;8.40;;;6.20;;
32639;SDS011;19049;52.524;11.468;2022-12-08T10:51:41;9.67;;;6.73;;
32639;SDS011;19049;52.524;11.468;2022-12-08T10:57:39;8.67;;;6.30;;
32639;SDS011;19049;52.524;11.468;2022-12-08T11:06:35;8.80;;;6.87;;
32639;SDS011;19049;52.524;11.468;2022-12-08T11:11:51;10.23;;;6.70;;
32639;SDS011;19049;52.524;11.468;2022-12-08T11:14:25;11.80;;;8.73;;
32639;SDS011;19049;52.524;11.468;2022-12-08T11:17:09;10.40;;;7.70;;
32639;SDS011;19049;52.524;11.468;2022-12-08T11:19:41;11.77;;;8.00;;
32639;SDS011;19049;52.524;11.468;2022-12-08T11:27:32;10.43;;;7.30;;
32639;SDS011;19049;52.524;11.468;2022-12-08T11:30:00;10.57;;;7.57;;
32639;SDS011;19049;52.524;11.468;2022-12-08T11:32:38;11.43;;;8.00;;
32639;SDS011;19049;52.524;11.468;2022-12-08T11:35:09;9.87;;;7.13;;
32639;SDS011;19049;52.524;11.468;2022-12-08T11:37:57;10.37;;;7.63;;
32639;SDS011;19049;52.524;11.468;2022-12-08T11:40:41;13.93;;;9.20;;
32639;SDS011;19049;52.524;11.468;2022-12-08T11:45:59;11.90;;;8.67;;
32639;SDS011;19049;52.524;11.468;2022-12-08T11:51:12;10.43;;;7.80;;
32639;SDS011;19049;52.524;11.468;2022-12-08T11:56:21;12.17;;;8.70;;
32639;SDS011;19049;52.524;11.468;2022-12-08T11:58:57;12.00;;;8.23;;
32639;SDS011;19049;52.524;11.468;2022-12-08T12:01:29;9.00;;;7.03;;
32639;SDS011;19049;52.524;11.468;2022-12-08T12:04:00;9.43;;;6.93;;
32639;SDS011;19049;52.524;11.468;2022-12-08T12:18:15;10.57;;;7.73;;
32639;SDS011;19049;52.524;11.468;2022-12-08T12:20:54;10.73;;;7.90;;
32639;SDS011;19049;52.524;11.468;2022-12-08T12:23:35;14.90;;;9.87;;
32639;SDS011;19049;52.524;11.468;2022-12-08T12:26:07;13.27;;;9.73;;
32639;SDS011;19049;52.524;11.468;2022-12-08T12:28:42;11.77;;;8.67;;
32639;SDS011;19049;52.524;11.468;2022-12-08T12:31:11;12.50;;;9.20;;
32639;SDS011;19049;52.524;11.468;2022-12-08T12:33:40;12.67;;;7.80;;
32639;SDS011;19049;52.524;11.468;2022-12-08T12:36:07;11.23;;;8.50;;
32639;SDS011;19049;52.524;11.468;2022-12-08T12:41:27;12.67;;;8.63;;
32639;SDS011;19049;52.524;11.468;2022-12-08T12:44:07;14.10;;;9.67;;
32639;SDS011;19049;52.524;11.468;2022-12-08T12:46:51;13.80;;;10.57;;
32639;SDS011;19049;52.524;11.468;2022-12-08T12:52:48;12.40;;;8.97;;
32639;SDS011;19049;52.524;11.468;2022-12-08T12:57:24;10.27;;;7.53;;
32639;SDS011;19049;52.524;11.468;2022-12-08T13:00:25;11.23;;;8.40;;
32639;SDS011;19049;52.524;11.468;2022-12-08T13:02:56;9.13;;;7.33;;
32639;SDS011;19049;52.524;11.468;2022-12-08T13:05:26;10.97;;;7.00;;
32639;SDS011;19049;52.524;11.468;2022-12-08T13:07:58;13.60;;;9.90;;
32639;SDS011;19049;52.524;11.468;2022-12-08T13:34:18;9.63;;;6.87;;
32639;SDS011;19049;52.524;11.468;2022-12-08T13:42:05;8.40;;;6.70;;
32639;SDS011;19049;52.524;11.468;2022-12-08T13:44:36;10.10;;;8.03;;
32639;SDS011;19049;52.524;11.468;2022-12-08T13:47:09;7.60;;;6.13;;
32639;SDS011;19049;52.524;11.468;2022-12-08T13:49:40;10.60;;;6.67;;
32639;SDS011;19049;52.524;11.468;2022-12-08T13:52:16;8.80;;;6.73;;
32639;SDS011;19049;52.524;11.468;2022-12-08T13:54:45;8.27;;;6.70;;
32639;SDS011;19049;52.524;11.468;2022-12-08T13:57:22;8.17;;;6.13;;
32639;SDS011;19049;52.524;11.468;2022-12-08T13:59:55;9.70;;;6.77;;
32639;SDS011;19049;52.524;11.468;2022-12-08T14:02:32;10.17;;;7.20;;
32639;SDS011;19049;52.524;11.468;2022-12-08T14:05:05;9.20;;;6.63;;
32639;SDS011;19049;52.524;11.468;2022-12-08T14:07:31;10.60;;;7.43;;
32639;SDS011;19049;52.524;11.468;2022-12-08T14:09:57;10.00;;;7.67;;
32639;SDS011;19049;52.524;11.468;2022-12-08T14:12:27;9.93;;;7.27;;
32639;SDS011;19049;52.524;11.468;2022-12-08T14:15:02;9.67;;;7.20;;
32639;SDS011;19049;52.524;11.468;2022-12-08T14:17:30;10.37;;;7.07;;
32639;SDS011;19049;52.524;11.468;2022-12-08T14:19:58;8.63;;;6.70;;
32639;SDS011;19049;52.524;11.468;2022-12-08T14:22:32;9.20;;;6.97;;
32639;SDS011;19049;52.524;11.468;2022-12-08T14:24:59;8.63;;;7.47;;
32639;SDS011;19049;52.524;11.468;2022-12-08T14:27:25;9.13;;;7.13;;
32639;SDS011;19049;52.524;11.468;2022-12-08T14:29:57;10.07;;;8.17;;
32639;SDS011;19049;52.524;11.468;2022-12-08T14:37:24;25.73;;;14.33;;
32639;SDS011;19049;52.524;11.468;2022-12-08T14:39:51;24.53;;;13.13;;
32639;SDS011;19049;52.524;11.468;2022-12-08T14:42:26;39.20;;;19.57;;
32639;SDS011;19049;52.524;11.468;2022-12-08T14:45:00;32.00;;;17.00;;
32639;SDS011;19049;52.524;11.468;2022-12-08T14:47:31;24.07;;;13.43;;
32639;SDS011;19049;52.524;11.468;2022-12-08T14:49:59;18.00;;;12.23;;
32639;SDS011;19049;52.524;11.468;2022-12-08T14:52:25;14.30;;;10.57;;
32639;SDS011;19049;52.524;11.468;2022-12-08T14:54:52;18.80;;;12.03;;
32639;SDS011;19049;52.524;11.468;2022-12-08T14:57:18;22.53;;;11.30;;
32639;SDS011;19049;52.524;11.468;2022-12-08T14:59:44;16.43;;;10.20;;
32639;SDS011;19049;52.524;11.468;2022-12-08T15:02:18;18.03;;;9.67;;
32639;SDS011;19049;52.524;11.468;2022-12-08T15:05:01;11.83;;;7.83;;
32639;SDS011;19049;52.524;11.468;2022-12-08T15:07:52;9.57;;;7.03;;
32639;SDS011;19049;52.524;11.468;2022-12-08T15:10:25;11.03;;;8.23;;
32639;SDS011;19049;52.524;11.468;2022-12-08T15:13:19;15.13;;;9.67;;
32639;SDS011;19049;52.524;11.468;2022-12-08T15:15:56;14.07;;;9.03;;
32639;SDS011;19049;52.524;11.468;2022-12-08T15:18:35;16.40;;;10.17;;
32639;SDS011;19049;52.524;11.468;2022-12-08T15:21:07;31.70;;;14.83;;
32639;SDS011;19049;52.524;11.468;2022-12-08T15:26:22;21.70;;;10.40;;
32639;SDS011;19049;52.524;11.468;2022-12-08T15:28:50;21.30;;;10.77;;
32639;SDS011;19049;52.524;11.468;2022-12-08T15:31:16;24.27;;;15.13;;
32639;SDS011;19049;52.524;11.468;2022-12-08T15:33:42;23.67;;;14.00;;
32639;SDS011;19049;52.524;11.468;2022-12-08T15:36:08;19.13;;;11.73;;
32639;SDS011;19049;52.524;11.468;2022-12-08T15:38:34;19.93;;;11.07;;
32639;SDS011;19049;52.524;11.468;2022-12-08T15:41:00;17.63;;;10.03;;
32639;SDS011;19049;52.524;11.468;2022-12-08T15:43:26;14.50;;;8.63;;
32639;SDS011;19049;52.524;11.468;2022-12-08T15:45:51;17.30;;;10.37;;
32639;SDS011;19049;52.524;11.468;2022-12-08T15:48:20;15.30;;;8.83;;
32639;SDS011;19049;52.524;11.468;2022-12-08T15:50:47;14.83;;;9.43;;
32639;SDS011;19049;52.524;11.468;2022-12-08T15:53:13;16.67;;;9.77;;
32639;SDS011;19049;52.524;11.468;2022-12-08T15:55:39;16.13;;;9.47;;
32639;SDS011;19049;52.524;11.468;2022-12-08T15:58:05;10.63;;;6.97;;
32639;SDS011;19049;52.524;11.468;2022-12-08T16:00:35;9.93;;;6.40;;
32639;SDS011;19049;52.524;11.468;2022-12-08T16:03:02;8.20;;;6.07;;
32639;SDS011;19049;52.524;11.468;2022-12-08T16:05:28;6.77;;;5.23;;
32639;SDS011;19049;52.524;11.468;2022-12-08T16:07:55;6.17;;;4.87;;
32639;SDS011;19049;52.524;11.468;2022-12-08T16:10:25;6.07;;;4.30;;
32639;SDS011;19049;52.524;11.468;2022-12-08T16:12:51;7.67;;;5.23;;
32639;SDS011;19049;52.524;11.468;2022-12-08T16:15:42;6.37;;;4.80;;
32639;SDS011;19049;52.524;11.468;2022-12-08T16:18:13;6.50;;;4.10;;
32639;SDS011;19049;52.524;11.468;2022-12-08T16:20:40;6.10;;;4.57;;
32639;SDS011;19049;52.524;11.468;2022-12-08T16:23:06;6.57;;;5.20;;
32639;SDS011;19049;52.524;11.468;2022-12-08T16:25:34;9.43;;;6.10;;
32639;SDS011;19049;52.524;11.468;2022-12-08T16:28:00;7.83;;;5.70;;
32639;SDS011;19049;52.524;11.468;2022-12-08T16:30:26;7.23;;;5.27;;
32639;SDS011;19049;52.524;11.468;2022-12-08T16:32:51;7.17;;;5.63;;
32639;SDS011;19049;52.524;11.468;2022-12-08T16:35:17;9.87;;;6.30;;
32639;SDS011;19049;52.524;11.468;2022-12-08T16:37:43;8.97;;;6.33;;
32639;SDS011;19049;52.524;11.468;2022-12-08T16:40:10;9.90;;;6.10;;
32639;SDS011;19049;52.524;11.468;2022-12-08T16:42:36;7.93;;;5.33;;
32639;SDS011;19049;52.524;11.468;2022-12-08T16:47:42;5.87;;;4.50;;
32639;SDS011;19049;52.524;11.468;2022-12-08T16:50:16;5.37;;;4.20;;
32639;SDS011;19049;52.524;11.468;2022-12-08T16:52:43;5.53;;;3.97;;
32639;SDS011;19049;52.524;11.468;2022-12-08T16:55:11;3.87;;;2.90;;
32639;SDS011;19049;52.524;11.468;2022-12-08T16:57:38;3.20;;;2.53;;
32639;SDS011;19049;52.524;11.468;2022-12-08T17:00:05;3.00;;;2.50;;
32639;SDS011;19049;52.524;11.468;2022-12-08T17:02:33;2.70;;;2.20;;
32639;SDS011;19049;52.524;11.468;2022-12-08T17:04:59;2.80;;;2.13;;
32639;SDS011;19049;52.524;11.468;2022-12-08T17:07:25;2.93;;;2.20;;
32639;SDS011;19049;52.524;11.468;2022-12-08T17:09:50;4.07;;;3.37;;
32639;SDS011;19049;52.524;11.468;2022-12-08T17:12:16;4.63;;;3.93;;
32639;SDS011;19049;52.524;11.468;2022-12-08T17:14:42;3.93;;;3.10;;
32639;SDS011;19049;52.524;11.468;2022-12-08T17:17:08;3.27;;;2.77;;
32639;SDS011;19049;52.524;11.468;2022-12-08T17:19:34;3.13;;;2.67;;
32639;SDS011;19049;52.524;11.468;2022-12-08T17:22:00;3.50;;;2.73;;
32639;SDS011;19049;52.524;11.468;2022-12-08T17:24:26;3.80;;;2.43;;
32639;SDS011;19049;52.524;11.468;2022-12-08T17:26:53;3.00;;;2.17;;
32639;SDS011;19049;52.524;11.468;2022-12-08T17:29:20;2.30;;;2.00;;
32639;SDS011;19049;52.524;11.468;2022-12-08T17:31:46;3.37;;;2.07;;
32639;SDS011;19049;52.524;11.468;2022-12-08T17:34:12;2.63;;;2.20;;
32639;SDS011;19049;52.524;11.468;2022-12-08T17:36:38;2.40;;;1.80;;
32639;SDS011;19049;52.524;11.468;2022-12-08T17:39:04;3.43;;;2.40;;
32639;SDS011;19049;52.524;11.468;2022-12-08T17:41:31;2.50;;;2.13;;
32639;SDS011;19049;52.524;11.468;2022-12-08T17:43:58;2.93;;;2.13;;
32639;SDS011;19049;52.524;11.468;2022-12-08T17:46:24;3.10;;;2.33;;
32639;SDS011;19049;52.524;11.468;2022-12-08T17:48:50;2.43;;;2.07;;
32639;SDS011;19049;52.524;11.468;2022-12-08T17:51:16;3.33;;;2.53;;
32639;SDS011;19049;52.524;11.468;2022-12-08T17:53:41;3.90;;;2.80;;
32639;SDS011;19049;52.524;11.468;2022-12-08T17:56:15;2.53;;;2.27;;
32639;SDS011;19049;52.524;11.468;2022-12-08T17:58:45;3.67;;;2.37;;
32639;SDS011;19049;52.524;11.468;2022-12-08T18:01:11;3.00;;;2.13;;
32639;SDS011;19049;52.524;11.468;2022-12-08T18:03:37;2.20;;;2.00;;
32639;SDS011;19049;52.524;11.468;2022-12-08T18:06:06;2.20;;;1.90;;
32639;SDS011;19049;52.524;11.468;2022-12-08T18:08:33;2.53;;;2.10;;
32639;SDS011;19049;52.524;11.468;2022-12-08T18:11:00;2.03;;;1.70;;